sensor_id;sensor_type;location;lat;lon;timestamp;P1;durP1;ratioP1;P2;durP2;ratioP2
17586;SDS011;8912;52.336;17.172;2022-10-31T00:01:29;80.93;;;48.30;;
17586;SDS011;8912;52.336;17.172;2022-10-31T00:03:58;68.60;;;46.60;;
17586;SDS011;8912;52.336;17.172;2022-10-31T00:06:27;50.87;;;44.10;;
17586;SDS011;8912;52.336;17.172;2022-10-31T00:08:57;64.20;;;46.47;;
17586;SDS011;8912;52.336;17.172;2022-10-31T00:11:26;56.37;;;45.30;;
17586;SDS011;8912;52.336;17.172;2022-10-31T00:13:57;66.83;;;45.40;;
17586;SDS011;8912;52.336;17.172;2022-10-31T00:16:26;51.10;;;42.53;;
17586;SDS011;8912;52.336;17.172;2022-10-31T00:18:56;56.13;;;43.43;;
17586;SDS011;8912;52.336;17.172;2022-10-31T00:21:26;48.37;;;41.40;;
17586;SDS011;8912;52.336;17.172;2022-10-31T00:23:56;52.13;;;41.67;;
17586;SDS011;8912;52.336;17.172;2022-10-31T00:26:26;57.47;;;42.70;;
17586;SDS011;8912;52.336;17.172;2022-10-31T00:28:55;58.33;;;40.13;;
17586;SDS011;8912;52.336;17.172;2022-10-31T00:31:26;67.47;;;41.63;;
17586;SDS011;8912;52.336;17.172;2022-10-31T00:33:55;51.90;;;38.73;;
17586;SDS011;8912;52.336;17.172;2022-10-31T00:36:26;49.50;;;40.70;;
17586;SDS011;8912;52.336;17.172;2022-10-31T00:38:55;56.30;;;42.43;;
17586;SDS011;8912;52.336;17.172;2022-10-31T00:41:23;47.67;;;40.70;;
17586;SDS011;8912;52.336;17.172;2022-10-31T00:43:52;49.63;;;40.47;;
17586;SDS011;8912;52.336;17.172;2022-10-31T00:46:22;52.60;;;41.67;;
17586;SDS011;8912;52.336;17.172;2022-10-31T00:48:51;56.83;;;43.10;;
17586;SDS011;8912;52.336;17.172;2022-10-31T00:51:20;59.13;;;40.73;;
17586;SDS011;8912;52.336;17.172;2022-10-31T00:53:48;54.10;;;40.93;;
17586;SDS011;8912;52.336;17.172;2022-10-31T00:56:17;52.03;;;40.63;;
17586;SDS011;8912;52.336;17.172;2022-10-31T00:58:46;50.73;;;38.40;;
17586;SDS011;8912;52.336;17.172;2022-10-31T01:01:14;45.97;;;37.00;;
17586;SDS011;8912;52.336;17.172;2022-10-31T01:03:45;44.57;;;37.13;;
17586;SDS011;8912;52.336;17.172;2022-10-31T01:06:14;41.33;;;36.97;;
17586;SDS011;8912;52.336;17.172;2022-10-31T01:08:43;40.40;;;36.13;;
17586;SDS011;8912;52.336;17.172;2022-10-31T01:11:12;41.03;;;36.63;;
17586;SDS011;8912;52.336;17.172;2022-10-31T01:13:42;57.77;;;42.07;;
17586;SDS011;8912;52.336;17.172;2022-10-31T01:16:12;46.20;;;40.77;;
17586;SDS011;8912;52.336;17.172;2022-10-31T01:18:43;44.40;;;39.03;;
17586;SDS011;8912;52.336;17.172;2022-10-31T01:21:15;45.83;;;40.73;;
17586;SDS011;8912;52.336;17.172;2022-10-31T01:23:48;43.80;;;39.17;;
17586;SDS011;8912;52.336;17.172;2022-10-31T01:26:18;51.97;;;41.00;;
17586;SDS011;8912;52.336;17.172;2022-10-31T01:28:48;45.33;;;39.13;;
17586;SDS011;8912;52.336;17.172;2022-10-31T01:31:19;57.37;;;42.27;;
17586;SDS011;8912;52.336;17.172;2022-10-31T01:33:49;51.60;;;40.90;;
17586;SDS011;8912;52.336;17.172;2022-10-31T01:36:21;52.90;;;41.57;;
17586;SDS011;8912;52.336;17.172;2022-10-31T01:38:51;52.17;;;41.83;;
17586;SDS011;8912;52.336;17.172;2022-10-31T01:41:21;51.27;;;41.63;;
17586;SDS011;8912;52.336;17.172;2022-10-31T01:43:52;44.33;;;36.73;;
17586;SDS011;8912;52.336;17.172;2022-10-31T01:46:22;42.00;;;36.97;;
17586;SDS011;8912;52.336;17.172;2022-10-31T01:48:53;43.60;;;35.17;;
17586;SDS011;8912;52.336;17.172;2022-10-31T01:51:26;41.17;;;34.90;;
17586;SDS011;8912;52.336;17.172;2022-10-31T01:54:00;42.50;;;35.43;;
17586;SDS011;8912;52.336;17.172;2022-10-31T01:56:34;47.00;;;35.77;;
17586;SDS011;8912;52.336;17.172;2022-10-31T01:59:08;55.60;;;38.50;;
17586;SDS011;8912;52.336;17.172;2022-10-31T02:01:40;47.13;;;35.70;;
17586;SDS011;8912;52.336;17.172;2022-10-31T02:04:09;51.03;;;36.30;;
17586;SDS011;8912;52.336;17.172;2022-10-31T02:06:41;49.57;;;36.97;;
17586;SDS011;8912;52.336;17.172;2022-10-31T02:09:13;51.13;;;36.53;;
17586;SDS011;8912;52.336;17.172;2022-10-31T02:11:42;50.33;;;37.57;;
17586;SDS011;8912;52.336;17.172;2022-10-31T02:14:13;47.20;;;36.90;;
17586;SDS011;8912;52.336;17.172;2022-10-31T02:16:41;43.67;;;36.43;;
17586;SDS011;8912;52.336;17.172;2022-10-31T02:19:11;44.67;;;38.27;;
17586;SDS011;8912;52.336;17.172;2022-10-31T02:21:49;55.23;;;42.00;;
17586;SDS011;8912;52.336;17.172;2022-10-31T02:27:35;58.40;;;42.40;;
17586;SDS011;8912;52.336;17.172;2022-10-31T02:30:16;49.60;;;40.73;;
17586;SDS011;8912;52.336;17.172;2022-10-31T02:35:50;49.43;;;40.47;;
17586;SDS011;8912;52.336;17.172;2022-10-31T02:38:32;44.20;;;39.40;;
17586;SDS011;8912;52.336;17.172;2022-10-31T02:41:11;44.20;;;39.13;;
17586;SDS011;8912;52.336;17.172;2022-10-31T02:43:54;46.33;;;39.57;;
17586;SDS011;8912;52.336;17.172;2022-10-31T02:46:30;46.07;;;38.77;;
17586;SDS011;8912;52.336;17.172;2022-10-31T02:49:07;44.83;;;38.07;;
17586;SDS011;8912;52.336;17.172;2022-10-31T02:51:40;50.57;;;39.20;;
17586;SDS011;8912;52.336;17.172;2022-10-31T02:54:16;42.00;;;37.60;;
17586;SDS011;8912;52.336;17.172;2022-10-31T02:56:50;48.40;;;38.40;;
17586;SDS011;8912;52.336;17.172;2022-10-31T02:59:22;41.33;;;37.03;;
17586;SDS011;8912;52.336;17.172;2022-10-31T03:01:57;45.00;;;40.13;;
17586;SDS011;8912;52.336;17.172;2022-10-31T03:05:01;43.73;;;37.67;;
17586;SDS011;8912;52.336;17.172;2022-10-31T03:07:41;44.00;;;38.43;;
17586;SDS011;8912;52.336;17.172;2022-10-31T03:10:16;41.03;;;36.70;;
17586;SDS011;8912;52.336;17.172;2022-10-31T03:12:54;42.33;;;37.77;;
17586;SDS011;8912;52.336;17.172;2022-10-31T03:15:33;61.50;;;41.37;;
17586;SDS011;8912;52.336;17.172;2022-10-31T03:18:06;51.57;;;40.63;;
17586;SDS011;8912;52.336;17.172;2022-10-31T03:20:41;62.13;;;42.40;;
17586;SDS011;8912;52.336;17.172;2022-10-31T03:23:13;44.67;;;39.40;;
17586;SDS011;8912;52.336;17.172;2022-10-31T03:25:49;54.27;;;41.33;;
17586;SDS011;8912;52.336;17.172;2022-10-31T03:28:26;51.57;;;38.47;;
17586;SDS011;8912;52.336;17.172;2022-10-31T03:31:00;48.57;;;39.93;;
17586;SDS011;8912;52.336;17.172;2022-10-31T03:33:36;48.07;;;38.50;;
17586;SDS011;8912;52.336;17.172;2022-10-31T03:36:09;49.80;;;38.67;;
17586;SDS011;8912;52.336;17.172;2022-10-31T03:38:43;47.63;;;38.47;;
17586;SDS011;8912;52.336;17.172;2022-10-31T03:41:18;49.30;;;36.50;;
17586;SDS011;8912;52.336;17.172;2022-10-31T03:43:51;48.77;;;38.33;;
17586;SDS011;8912;52.336;17.172;2022-10-31T03:46:24;46.37;;;36.90;;
17586;SDS011;8912;52.336;17.172;2022-10-31T03:48:56;47.80;;;36.67;;
17586;SDS011;8912;52.336;17.172;2022-10-31T03:51:27;45.43;;;36.50;;
17586;SDS011;8912;52.336;17.172;2022-10-31T03:54:07;48.47;;;37.17;;
17586;SDS011;8912;52.336;17.172;2022-10-31T03:56:41;41.93;;;36.30;;
17586;SDS011;8912;52.336;17.172;2022-10-31T03:59:14;44.23;;;36.93;;
17586;SDS011;8912;52.336;17.172;2022-10-31T04:01:48;43.70;;;36.10;;
17586;SDS011;8912;52.336;17.172;2022-10-31T04:04:20;48.80;;;38.13;;
17586;SDS011;8912;52.336;17.172;2022-10-31T04:06:50;53.20;;;37.97;;
17586;SDS011;8912;52.336;17.172;2022-10-31T04:09:21;45.90;;;37.90;;
17586;SDS011;8912;52.336;17.172;2022-10-31T04:11:53;41.90;;;36.57;;
17586;SDS011;8912;52.336;17.172;2022-10-31T04:14:36;63.43;;;40.20;;
17586;SDS011;8912;52.336;17.172;2022-10-31T04:17:08;45.57;;;37.37;;
17586;SDS011;8912;52.336;17.172;2022-10-31T04:19:41;41.80;;;36.50;;
17586;SDS011;8912;52.336;17.172;2022-10-31T04:22:11;49.70;;;38.37;;
17586;SDS011;8912;52.336;17.172;2022-10-31T04:24:41;48.43;;;36.67;;
17586;SDS011;8912;52.336;17.172;2022-10-31T04:27:13;47.07;;;36.73;;
17586;SDS011;8912;52.336;17.172;2022-10-31T04:29:42;40.33;;;35.93;;
17586;SDS011;8912;52.336;17.172;2022-10-31T04:32:16;42.37;;;35.07;;
17586;SDS011;8912;52.336;17.172;2022-10-31T04:34:44;43.13;;;35.53;;
17586;SDS011;8912;52.336;17.172;2022-10-31T04:37:14;53.40;;;39.60;;
17586;SDS011;8912;52.336;17.172;2022-10-31T04:39:43;46.10;;;35.90;;
17586;SDS011;8912;52.336;17.172;2022-10-31T04:42:32;45.23;;;37.20;;
17586;SDS011;8912;52.336;17.172;2022-10-31T04:45:03;43.20;;;34.83;;
17586;SDS011;8912;52.336;17.172;2022-10-31T04:47:34;43.00;;;34.60;;
17586;SDS011;8912;52.336;17.172;2022-10-31T04:50:03;44.37;;;34.57;;
17586;SDS011;8912;52.336;17.172;2022-10-31T04:52:39;41.97;;;32.13;;
17586;SDS011;8912;52.336;17.172;2022-10-31T04:55:10;43.10;;;32.07;;
17586;SDS011;8912;52.336;17.172;2022-10-31T04:57:58;48.47;;;33.23;;
17586;SDS011;8912;52.336;17.172;2022-10-31T05:00:27;40.07;;;30.40;;
17586;SDS011;8912;52.336;17.172;2022-10-31T05:02:57;40.87;;;32.47;;
17586;SDS011;8912;52.336;17.172;2022-10-31T05:05:27;41.90;;;33.87;;
17586;SDS011;8912;52.336;17.172;2022-10-31T05:08:01;38.03;;;33.17;;
17586;SDS011;8912;52.336;17.172;2022-10-31T05:10:31;42.77;;;34.87;;
17586;SDS011;8912;52.336;17.172;2022-10-31T05:13:01;41.47;;;34.03;;
17586;SDS011;8912;52.336;17.172;2022-10-31T05:15:52;39.40;;;33.00;;
17586;SDS011;8912;52.336;17.172;2022-10-31T05:18:39;42.20;;;34.20;;
17586;SDS011;8912;52.336;17.172;2022-10-31T05:21:27;41.03;;;33.57;;
17586;SDS011;8912;52.336;17.172;2022-10-31T05:24:01;47.13;;;35.00;;
17586;SDS011;8912;52.336;17.172;2022-10-31T05:26:30;44.67;;;36.53;;
17586;SDS011;8912;52.336;17.172;2022-10-31T05:28:59;47.50;;;36.17;;
17586;SDS011;8912;52.336;17.172;2022-10-31T05:31:28;40.60;;;34.70;;
17586;SDS011;8912;52.336;17.172;2022-10-31T05:33:57;40.07;;;34.43;;
17586;SDS011;8912;52.336;17.172;2022-10-31T05:36:49;44.60;;;34.40;;
17586;SDS011;8912;52.336;17.172;2022-10-31T05:39:22;38.27;;;32.97;;
17586;SDS011;8912;52.336;17.172;2022-10-31T05:41:55;42.53;;;33.00;;
17586;SDS011;8912;52.336;17.172;2022-10-31T05:44:26;41.97;;;35.07;;
17586;SDS011;8912;52.336;17.172;2022-10-31T05:47:12;42.37;;;34.73;;
17586;SDS011;8912;52.336;17.172;2022-10-31T05:50:10;43.70;;;33.77;;
17586;SDS011;8912;52.336;17.172;2022-10-31T05:52:55;58.07;;;36.57;;
17586;SDS011;8912;52.336;17.172;2022-10-31T05:55:31;44.23;;;35.23;;
17586;SDS011;8912;52.336;17.172;2022-10-31T05:58:08;41.37;;;34.10;;
17586;SDS011;8912;52.336;17.172;2022-10-31T06:00:40;40.97;;;35.10;;
17586;SDS011;8912;52.336;17.172;2022-10-31T06:03:10;40.30;;;34.17;;
17586;SDS011;8912;52.336;17.172;2022-10-31T06:05:57;40.97;;;35.00;;
17586;SDS011;8912;52.336;17.172;2022-10-31T06:08:32;41.03;;;35.53;;
17586;SDS011;8912;52.336;17.172;2022-10-31T06:11:06;49.80;;;35.83;;
17586;SDS011;8912;52.336;17.172;2022-10-31T06:14:04;39.70;;;32.67;;
17586;SDS011;8912;52.336;17.172;2022-10-31T06:16:44;45.50;;;34.70;;
17586;SDS011;8912;52.336;17.172;2022-10-31T06:19:33;45.33;;;33.57;;
17586;SDS011;8912;52.336;17.172;2022-10-31T06:22:02;52.70;;;36.37;;
17586;SDS011;8912;52.336;17.172;2022-10-31T06:24:32;47.10;;;34.43;;
17586;SDS011;8912;52.336;17.172;2022-10-31T06:27:18;43.63;;;34.67;;
17586;SDS011;8912;52.336;17.172;2022-10-31T06:29:47;45.40;;;36.73;;
17586;SDS011;8912;52.336;17.172;2022-10-31T06:32:28;120.13;;;66.33;;
17586;SDS011;8912;52.336;17.172;2022-10-31T06:34:57;109.10;;;68.73;;
17586;SDS011;8912;52.336;17.172;2022-10-31T06:37:26;57.70;;;38.17;;
17586;SDS011;8912;52.336;17.172;2022-10-31T06:40:02;46.03;;;33.43;;
17586;SDS011;8912;52.336;17.172;2022-10-31T06:42:45;50.37;;;34.07;;
17586;SDS011;8912;52.336;17.172;2022-10-31T06:45:14;46.37;;;34.70;;
17586;SDS011;8912;52.336;17.172;2022-10-31T06:48:15;48.20;;;33.80;;
17586;SDS011;8912;52.336;17.172;2022-10-31T06:51:02;38.43;;;31.40;;
17586;SDS011;8912;52.336;17.172;2022-10-31T06:53:32;47.67;;;32.93;;
17586;SDS011;8912;52.336;17.172;2022-10-31T06:56:02;52.13;;;34.37;;
17586;SDS011;8912;52.336;17.172;2022-10-31T06:58:38;36.83;;;30.53;;
17586;SDS011;8912;52.336;17.172;2022-10-31T07:01:09;35.67;;;30.30;;
17586;SDS011;8912;52.336;17.172;2022-10-31T07:03:38;43.57;;;30.83;;
17586;SDS011;8912;52.336;17.172;2022-10-31T07:06:07;47.83;;;30.20;;
17586;SDS011;8912;52.336;17.172;2022-10-31T07:08:37;38.67;;;28.70;;
17586;SDS011;8912;52.336;17.172;2022-10-31T07:11:06;41.13;;;28.27;;
17586;SDS011;8912;52.336;17.172;2022-10-31T07:13:39;45.07;;;28.00;;
17586;SDS011;8912;52.336;17.172;2022-10-31T07:16:08;42.83;;;27.47;;
17586;SDS011;8912;52.336;17.172;2022-10-31T07:18:40;46.57;;;27.70;;
17586;SDS011;8912;52.336;17.172;2022-10-31T07:21:11;53.43;;;26.67;;
17586;SDS011;8912;52.336;17.172;2022-10-31T07:23:40;45.63;;;25.77;;
17586;SDS011;8912;52.336;17.172;2022-10-31T07:26:45;40.00;;;25.17;;
17586;SDS011;8912;52.336;17.172;2022-10-31T07:29:16;51.33;;;24.60;;
17586;SDS011;8912;52.336;17.172;2022-10-31T07:31:45;56.33;;;24.57;;
17586;SDS011;8912;52.336;17.172;2022-10-31T07:34:20;44.60;;;25.90;;
17586;SDS011;8912;52.336;17.172;2022-10-31T07:36:55;40.03;;;26.03;;
17586;SDS011;8912;52.336;17.172;2022-10-31T07:39:23;47.20;;;25.20;;
17586;SDS011;8912;52.336;17.172;2022-10-31T07:41:52;39.30;;;25.10;;
17586;SDS011;8912;52.336;17.172;2022-10-31T07:44:23;38.30;;;24.37;;
17586;SDS011;8912;52.336;17.172;2022-10-31T07:46:57;47.27;;;23.93;;
17586;SDS011;8912;52.336;17.172;2022-10-31T07:49:52;32.53;;;22.63;;
17586;SDS011;8912;52.336;17.172;2022-10-31T07:52:40;28.13;;;21.67;;
17586;SDS011;8912;52.336;17.172;2022-10-31T07:55:28;38.70;;;23.70;;
17586;SDS011;8912;52.336;17.172;2022-10-31T07:57:58;47.37;;;23.87;;
17586;SDS011;8912;52.336;17.172;2022-10-31T08:00:31;42.00;;;23.73;;
17586;SDS011;8912;52.336;17.172;2022-10-31T08:03:01;37.60;;;24.17;;
17586;SDS011;8912;52.336;17.172;2022-10-31T08:05:50;37.07;;;23.63;;
17586;SDS011;8912;52.336;17.172;2022-10-31T08:08:51;28.00;;;23.80;;
17586;SDS011;8912;52.336;17.172;2022-10-31T08:11:22;41.20;;;23.03;;
17586;SDS011;8912;52.336;17.172;2022-10-31T08:13:52;28.73;;;21.90;;
17586;SDS011;8912;52.336;17.172;2022-10-31T08:16:22;24.23;;;21.67;;
17586;SDS011;8912;52.336;17.172;2022-10-31T08:19:00;24.80;;;22.37;;
17586;SDS011;8912;52.336;17.172;2022-10-31T08:21:35;25.47;;;22.87;;
17586;SDS011;8912;52.336;17.172;2022-10-31T08:24:05;25.37;;;22.63;;
17586;SDS011;8912;52.336;17.172;2022-10-31T08:26:34;25.63;;;22.87;;
17586;SDS011;8912;52.336;17.172;2022-10-31T08:29:05;25.00;;;22.43;;
17586;SDS011;8912;52.336;17.172;2022-10-31T08:31:38;24.93;;;22.33;;
17586;SDS011;8912;52.336;17.172;2022-10-31T08:34:31;28.47;;;23.33;;
17586;SDS011;8912;52.336;17.172;2022-10-31T08:37:32;23.60;;;21.27;;
17586;SDS011;8912;52.336;17.172;2022-10-31T08:40:03;22.70;;;19.73;;
17586;SDS011;8912;52.336;17.172;2022-10-31T08:42:34;22.10;;;19.87;;
17586;SDS011;8912;52.336;17.172;2022-10-31T08:45:03;22.23;;;20.03;;
17586;SDS011;8912;52.336;17.172;2022-10-31T08:47:34;21.93;;;19.73;;
17586;SDS011;8912;52.336;17.172;2022-10-31T08:50:04;21.80;;;18.70;;
17586;SDS011;8912;52.336;17.172;2022-10-31T08:52:34;20.87;;;18.87;;
17586;SDS011;8912;52.336;17.172;2022-10-31T08:55:22;19.73;;;17.63;;
17586;SDS011;8912;52.336;17.172;2022-10-31T08:57:53;20.07;;;17.97;;
17586;SDS011;8912;52.336;17.172;2022-10-31T09:00:26;21.40;;;19.03;;
17586;SDS011;8912;52.336;17.172;2022-10-31T09:03:02;21.87;;;18.70;;
17586;SDS011;8912;52.336;17.172;2022-10-31T09:05:32;21.30;;;19.10;;
17586;SDS011;8912;52.336;17.172;2022-10-31T09:08:02;22.70;;;19.30;;
17586;SDS011;8912;52.336;17.172;2022-10-31T09:10:39;22.63;;;18.43;;
17586;SDS011;8912;52.336;17.172;2022-10-31T09:13:09;20.60;;;18.43;;
17586;SDS011;8912;52.336;17.172;2022-10-31T09:16:08;26.43;;;18.10;;
17586;SDS011;8912;52.336;17.172;2022-10-31T09:18:38;21.53;;;18.53;;
17586;SDS011;8912;52.336;17.172;2022-10-31T09:21:07;20.83;;;18.53;;
17586;SDS011;8912;52.336;17.172;2022-10-31T09:23:36;24.30;;;19.03;;
17586;SDS011;8912;52.336;17.172;2022-10-31T09:26:05;21.07;;;18.67;;
17586;SDS011;8912;52.336;17.172;2022-10-31T09:28:36;21.87;;;18.37;;
17586;SDS011;8912;52.336;17.172;2022-10-31T09:31:13;21.20;;;18.97;;
17586;SDS011;8912;52.336;17.172;2022-10-31T09:34:01;21.13;;;18.87;;
17586;SDS011;8912;52.336;17.172;2022-10-31T09:36:37;20.33;;;18.20;;
17586;SDS011;8912;52.336;17.172;2022-10-31T09:39:10;23.90;;;19.33;;
17586;SDS011;8912;52.336;17.172;2022-10-31T09:41:46;23.77;;;19.67;;
17586;SDS011;8912;52.336;17.172;2022-10-31T09:44:36;24.70;;;18.80;;
17586;SDS011;8912;52.336;17.172;2022-10-31T09:47:29;25.63;;;19.70;;
17586;SDS011;8912;52.336;17.172;2022-10-31T09:50:38;20.60;;;18.17;;
17586;SDS011;8912;52.336;17.172;2022-10-31T09:53:31;23.47;;;19.87;;
17586;SDS011;8912;52.336;17.172;2022-10-31T09:56:07;30.93;;;19.07;;
17586;SDS011;8912;52.336;17.172;2022-10-31T09:58:40;21.73;;;19.43;;
17586;SDS011;8912;52.336;17.172;2022-10-31T10:01:31;28.23;;;19.53;;
17586;SDS011;8912;52.336;17.172;2022-10-31T10:04:14;22.40;;;17.90;;
17586;SDS011;8912;52.336;17.172;2022-10-31T10:07:16;26.47;;;19.77;;
17586;SDS011;8912;52.336;17.172;2022-10-31T10:10:22;21.17;;;17.60;;
17586;SDS011;8912;52.336;17.172;2022-10-31T10:13:18;26.03;;;18.93;;
17586;SDS011;8912;52.336;17.172;2022-10-31T10:16:11;26.67;;;18.57;;
17586;SDS011;8912;52.336;17.172;2022-10-31T10:18:52;23.90;;;17.63;;
17586;SDS011;8912;52.336;17.172;2022-10-31T10:21:34;25.47;;;18.20;;
17586;SDS011;8912;52.336;17.172;2022-10-31T10:24:16;21.80;;;17.73;;
17586;SDS011;8912;52.336;17.172;2022-10-31T10:26:53;23.30;;;17.47;;
17586;SDS011;8912;52.336;17.172;2022-10-31T10:29:31;24.63;;;17.90;;
17586;SDS011;8912;52.336;17.172;2022-10-31T10:32:04;19.27;;;16.77;;
17586;SDS011;8912;52.336;17.172;2022-10-31T10:34:39;18.67;;;15.93;;
17586;SDS011;8912;52.336;17.172;2022-10-31T10:37:17;31.13;;;18.10;;
17586;SDS011;8912;52.336;17.172;2022-10-31T10:39:55;22.40;;;16.57;;
17586;SDS011;8912;52.336;17.172;2022-10-31T10:42:30;24.07;;;17.37;;
17586;SDS011;8912;52.336;17.172;2022-10-31T10:45:17;22.37;;;16.33;;
17586;SDS011;8912;52.336;17.172;2022-10-31T10:48:10;21.97;;;15.20;;
17586;SDS011;8912;52.336;17.172;2022-10-31T10:50:44;24.73;;;15.83;;
17586;SDS011;8912;52.336;17.172;2022-10-31T10:53:20;25.07;;;16.00;;
17586;SDS011;8912;52.336;17.172;2022-10-31T10:56:07;25.58;;;15.93;;
17586;SDS011;8912;52.336;17.172;2022-10-31T10:58:43;20.93;;;16.13;;
17586;SDS011;8912;52.336;17.172;2022-10-31T11:01:13;20.33;;;16.03;;
17586;SDS011;8912;52.336;17.172;2022-10-31T11:03:43;23.00;;;16.23;;
17586;SDS011;8912;52.336;17.172;2022-10-31T11:06:18;24.67;;;15.85;;
17586;SDS011;8912;52.336;17.172;2022-10-31T11:08:52;21.77;;;15.18;;
17586;SDS011;8912;52.336;17.172;2022-10-31T11:11:26;21.50;;;15.57;;
17586;SDS011;8912;52.336;17.172;2022-10-31T11:14:00;24.33;;;15.75;;
17586;SDS011;8912;52.336;17.172;2022-10-31T11:16:32;21.52;;;14.98;;
17586;SDS011;8912;52.336;17.172;2022-10-31T11:19:14;22.27;;;15.00;;
17586;SDS011;8912;52.336;17.172;2022-10-31T11:21:45;16.13;;;14.40;;
17586;SDS011;8912;52.336;17.172;2022-10-31T11:24:20;20.50;;;13.93;;
17586;SDS011;8912;52.336;17.172;2022-10-31T11:29:43;20.33;;;16.13;;
17586;SDS011;8912;52.336;17.172;2022-10-31T11:32:17;22.30;;;15.85;;
17586;SDS011;8912;52.336;17.172;2022-10-31T11:34:50;22.95;;;16.77;;
17586;SDS011;8912;52.336;17.172;2022-10-31T11:37:21;20.65;;;16.52;;
17586;SDS011;8912;52.336;17.172;2022-10-31T11:39:52;23.52;;;17.13;;
17586;SDS011;8912;52.336;17.172;2022-10-31T11:42:24;24.35;;;16.95;;
17586;SDS011;8912;52.336;17.172;2022-10-31T11:44:54;24.50;;;17.45;;
17586;SDS011;8912;52.336;17.172;2022-10-31T11:47:25;21.15;;;17.55;;
17586;SDS011;8912;52.336;17.172;2022-10-31T11:49:56;23.60;;;19.05;;
17586;SDS011;8912;52.336;17.172;2022-10-31T11:52:26;26.70;;;18.95;;
17586;SDS011;8912;52.336;17.172;2022-10-31T11:54:57;25.77;;;18.13;;
17586;SDS011;8912;52.336;17.172;2022-10-31T11:57:31;23.15;;;17.73;;
17586;SDS011;8912;52.336;17.172;2022-10-31T12:00:03;26.73;;;18.90;;
17586;SDS011;8912;52.336;17.172;2022-10-31T12:02:47;27.30;;;18.67;;
17586;SDS011;8912;52.336;17.172;2022-10-31T12:05:17;23.65;;;18.42;;
17586;SDS011;8912;52.336;17.172;2022-10-31T12:07:47;22.08;;;17.67;;
17586;SDS011;8912;52.336;17.172;2022-10-31T12:10:16;26.30;;;18.38;;
17586;SDS011;8912;52.336;17.172;2022-10-31T12:13:05;20.70;;;17.45;;
17586;SDS011;8912;52.336;17.172;2022-10-31T12:15:50;23.15;;;17.65;;
17586;SDS011;8912;52.336;17.172;2022-10-31T12:18:38;25.77;;;17.83;;
17586;SDS011;8912;52.336;17.172;2022-10-31T12:21:22;21.70;;;17.67;;
17586;SDS011;8912;52.336;17.172;2022-10-31T12:24:07;21.13;;;18.40;;
17586;SDS011;8912;52.336;17.172;2022-10-31T12:26:49;22.77;;;17.42;;
17586;SDS011;8912;52.336;17.172;2022-10-31T12:29:38;25.65;;;17.67;;
17586;SDS011;8912;52.336;17.172;2022-10-31T12:32:24;23.20;;;17.25;;
17586;SDS011;8912;52.336;17.172;2022-10-31T12:35:21;26.90;;;16.60;;
17586;SDS011;8912;52.336;17.172;2022-10-31T12:38:18;23.27;;;15.57;;
17586;SDS011;8912;52.336;17.172;2022-10-31T12:41:03;20.45;;;16.83;;
17586;SDS011;8912;52.336;17.172;2022-10-31T12:43:45;24.65;;;16.65;;
17586;SDS011;8912;52.336;17.172;2022-10-31T12:46:22;33.15;;;17.02;;
17586;SDS011;8912;52.336;17.172;2022-10-31T12:49:00;21.83;;;15.77;;
17586;SDS011;8912;52.336;17.172;2022-10-31T12:51:50;28.00;;;16.05;;
17586;SDS011;8912;52.336;17.172;2022-10-31T12:54:33;19.98;;;15.50;;
17586;SDS011;8912;52.336;17.172;2022-10-31T12:57:16;20.80;;;16.13;;
17586;SDS011;8912;52.336;17.172;2022-10-31T12:59:52;20.73;;;16.13;;
17586;SDS011;8912;52.336;17.172;2022-10-31T13:02:27;21.50;;;15.75;;
17586;SDS011;8912;52.336;17.172;2022-10-31T13:05:01;187.70;;;25.88;;
17586;SDS011;8912;52.336;17.172;2022-10-31T13:07:34;41.75;;;18.23;;
17586;SDS011;8912;52.336;17.172;2022-10-31T13:10:07;29.65;;;17.58;;
17586;SDS011;8912;52.336;17.172;2022-10-31T13:12:43;27.48;;;16.13;;
17586;SDS011;8912;52.336;17.172;2022-10-31T13:15:15;21.52;;;16.42;;
17586;SDS011;8912;52.336;17.172;2022-10-31T13:17:49;22.60;;;16.02;;
17586;SDS011;8912;52.336;17.172;2022-10-31T13:20:22;23.48;;;15.38;;
17586;SDS011;8912;52.336;17.172;2022-10-31T13:22:55;21.23;;;15.55;;
17586;SDS011;8912;52.336;17.172;2022-10-31T13:25:58;25.90;;;14.70;;
17586;SDS011;8912;52.336;17.172;2022-10-31T13:28:33;24.08;;;15.07;;
17586;SDS011;8912;52.336;17.172;2022-10-31T13:31:07;24.15;;;14.80;;
17586;SDS011;8912;52.336;17.172;2022-10-31T13:33:39;23.75;;;15.25;;
17586;SDS011;8912;52.336;17.172;2022-10-31T13:36:15;21.33;;;14.45;;
17586;SDS011;8912;52.336;17.172;2022-10-31T13:38:53;20.33;;;16.15;;
17586;SDS011;8912;52.336;17.172;2022-10-31T13:41:29;31.33;;;16.30;;
17586;SDS011;8912;52.336;17.172;2022-10-31T13:44:09;26.70;;;16.00;;
17586;SDS011;8912;52.336;17.172;2022-10-31T13:46:42;25.17;;;14.57;;
17586;SDS011;8912;52.336;17.172;2022-10-31T13:49:26;27.42;;;15.57;;
17586;SDS011;8912;52.336;17.172;2022-10-31T13:52:07;25.42;;;14.63;;
17586;SDS011;8912;52.336;17.172;2022-10-31T13:54:43;26.15;;;15.20;;
17586;SDS011;8912;52.336;17.172;2022-10-31T13:57:15;25.42;;;14.80;;
17586;SDS011;8912;52.336;17.172;2022-10-31T13:59:47;21.73;;;14.57;;
17586;SDS011;8912;52.336;17.172;2022-10-31T14:02:22;24.00;;;14.32;;
17586;SDS011;8912;52.336;17.172;2022-10-31T14:04:57;26.08;;;14.77;;
17586;SDS011;8912;52.336;17.172;2022-10-31T14:07:28;21.33;;;14.77;;
17586;SDS011;8912;52.336;17.172;2022-10-31T14:09:59;26.05;;;14.75;;
17586;SDS011;8912;52.336;17.172;2022-10-31T14:12:33;21.33;;;15.20;;
17586;SDS011;8912;52.336;17.172;2022-10-31T14:15:05;24.48;;;15.98;;
17586;SDS011;8912;52.336;17.172;2022-10-31T14:17:44;22.15;;;15.00;;
17586;SDS011;8912;52.336;17.172;2022-10-31T14:20:32;28.20;;;15.57;;
17586;SDS011;8912;52.336;17.172;2022-10-31T14:23:11;22.50;;;15.45;;
17586;SDS011;8912;52.336;17.172;2022-10-31T14:26:06;18.48;;;15.00;;
17586;SDS011;8912;52.336;17.172;2022-10-31T14:28:45;23.42;;;15.80;;
17586;SDS011;8912;52.336;17.172;2022-10-31T14:31:27;21.52;;;15.32;;
17586;SDS011;8912;52.336;17.172;2022-10-31T14:34:00;32.38;;;19.63;;
17586;SDS011;8912;52.336;17.172;2022-10-31T14:36:37;28.75;;;21.08;;
17586;SDS011;8912;52.336;17.172;2022-10-31T14:39:11;29.27;;;20.40;;
17586;SDS011;8912;52.336;17.172;2022-10-31T14:41:49;32.60;;;20.23;;
17586;SDS011;8912;52.336;17.172;2022-10-31T14:44:36;28.63;;;19.95;;
17586;SDS011;8912;52.336;17.172;2022-10-31T14:47:16;29.70;;;20.85;;
17586;SDS011;8912;52.336;17.172;2022-10-31T14:52:53;32.42;;;22.17;;
17586;SDS011;8912;52.336;17.172;2022-10-31T14:55:25;36.80;;;22.67;;
17586;SDS011;8912;52.336;17.172;2022-10-31T14:58:02;33.57;;;23.40;;
17586;SDS011;8912;52.336;17.172;2022-10-31T15:00:34;35.97;;;24.02;;
17586;SDS011;8912;52.336;17.172;2022-10-31T15:03:05;35.97;;;26.27;;
17586;SDS011;8912;52.336;17.172;2022-10-31T15:05:45;34.47;;;23.70;;
17586;SDS011;8912;52.336;17.172;2022-10-31T15:08:29;31.85;;;22.95;;
17586;SDS011;8912;52.336;17.172;2022-10-31T15:11:08;38.33;;;22.83;;
17586;SDS011;8912;52.336;17.172;2022-10-31T15:13:42;35.33;;;25.67;;
17586;SDS011;8912;52.336;17.172;2022-10-31T15:16:12;31.57;;;24.47;;
17586;SDS011;8912;52.336;17.172;2022-10-31T15:18:47;45.33;;;27.57;;
17586;SDS011;8912;52.336;17.172;2022-10-31T15:21:20;44.33;;;28.83;;
17586;SDS011;8912;52.336;17.172;2022-10-31T15:23:52;44.53;;;30.37;;